Time;durP1;ratioP1;P1;durP2;ratioP2;P2;SDS_P1;SDS_P2;PMS_P1;PMS_P2;Temp;Humidity;BMP_temperature;BMP_pressure;BME280_temperature;BME280_humidity;BME280_pressure;Samples;Min_cycle;Max_cycle;Signal;HPM_P1;HPM_P2
2022/09/23 00:02:24;;;;;;;4.70;4.38;;;12.80;99.90;;;;;;4927822;29;20067;-90
2022/09/23 00:04:50;;;;;;;5.40;4.90;;;;;;;;;;4915799;29;20043;-90
2022/09/23 00:07:17;;;;;;;4.28;3.92;;;;;;;;;;4931341;29;20036;-89
2022/09/23 00:09:42;;;;;;;6.75;5.63;;;12.80;99.90;;;;;;4931656;29;20116;-90
2022/09/23 00:12:09;;;;;;;7.53;5.03;;;;;;;;;;4915179;29;20040;-90
2022/09/23 00:14:37;;;;;;;6.05;3.78;;;12.80;99.90;;;;;;4916046;29;20167;-89
2022/09/23 00:17:03;;;;;;;4.35;3.95;;;12.70;99.90;;;;;;4937609;29;20038;-89
2022/09/23 00:19:29;;;;;;;4.95;4.45;;;;;;;;;;4934328;29;20040;-89
2022/09/23 00:21:55;;;;;;;4.60;4.03;;;12.70;99.90;;;;;;4934008;29;20115;-90
2022/09/23 00:24:22;;;;;;;7.80;4.28;;;12.70;99.90;;;;;;4950162;29;20032;-90
2022/09/23 00:26:48;;;;;;;6.18;4.38;;;;;;;;;;4934307;29;20040;-89
2022/09/23 00:29:15;;;;;;;6.32;5.65;;;;;;;;;;4934452;29;20031;-89
2022/09/23 00:31:41;;;;;;;8.20;5.35;;;12.70;99.90;;;;;;4949966;29;20040;-89
2022/09/23 00:34:09;;;;;;;11.02;5.70;;;12.70;99.90;;;;;;4949997;29;20091;-89
2022/09/23 00:36:36;;;;;;;6.30;5.13;;;12.70;99.90;;;;;;4934156;29;20481;-90
2022/09/23 00:39:02;;;;;;;7.60;5.68;;;12.70;99.90;;;;;;4934419;29;20055;-90
2022/09/23 00:41:29;;;;;;;11.65;5.40;;;12.70;99.90;;;;;;4934888;29;20032;-90
2022/09/23 00:43:59;;;;;;;7.10;6.45;;;12.60;99.90;;;;;;4950414;29;20032;-90
2022/09/23 00:46:36;;;;;;;5.75;4.43;;;12.70;99.90;;;;;;4950395;29;20038;-89
2022/09/23 00:49:10;;;;;;;6.53;5.70;;;12.50;99.90;;;;;;4950691;29;20032;-89
2022/09/23 00:51:42;;;;;;;7.90;5.97;;;12.60;99.90;;;;;;4934906;29;20042;-89
2022/09/23 00:54:09;;;;;;;8.15;4.88;;;12.60;99.90;;;;;;4934169;29;20042;-89
2022/09/23 00:56:37;;;;;;;6.78;5.45;;;12.60;99.90;;;;;;4949674;29;20022;-89
2022/09/23 00:59:05;;;;;;;5.47;4.97;;;12.60;99.90;;;;;;4933999;29;20134;-89
2022/09/23 01:01:31;;;;;;;7.43;5.00;;;12.50;99.90;;;;;;4950841;29;20066;-89
2022/09/23 01:03:57;;;;;;;5.07;4.50;;;;;;;;;;4933015;29;20028;-90
2022/09/23 01:06:24;;;;;;;8.07;5.18;;;12.50;99.90;;;;;;4934069;29;20040;-90
2022/09/23 01:08:51;;;;;;;7.20;5.70;;;;;;;;;;4934127;29;20031;-90
2022/09/23 01:11:33;;;;;;;5.75;4.68;;;12.50;99.90;;;;;;4933606;29;20028;-89
2022/09/23 01:14:17;;;;;;;4.30;3.90;;;12.50;99.90;;;;;;4949426;29;20059;-89
2022/09/23 01:17:42;;;;;;;7.78;5.45;;;12.50;99.90;;;;;;4949864;29;20040;-89
2022/09/23 01:20:14;;;;;;;6.43;5.30;;;12.50;99.90;;;;;;4852540;29;20058;-89
2022/09/23 01:22:45;;;;;;;7.18;5.32;;;12.50;99.90;;;;;;4933953;29;20042;-89
2022/09/23 01:25:27;;;;;;;9.38;5.45;;;12.40;99.90;;;;;;4949746;29;20043;-89
2022/09/23 01:27:59;;;;;;;5.80;5.28;;;12.50;99.90;;;;;;4949723;29;20052;-89
2022/09/23 01:31:04;;;;;;;7.38;5.45;;;12.40;99.90;;;;;;4948965;29;20401;-89
2022/09/23 01:33:46;;;;;;;5.75;5.15;;;12.40;99.90;;;;;;4932498;29;20062;-89
2022/09/23 01:36:35;;;;;;;6.10;5.40;;;12.40;99.90;;;;;;4949664;29;20114;-89
2022/09/23 01:39:36;;;;;;;5.80;4.88;;;12.40;99.90;;;;;;4949870;29;20031;-89
2022/09/23 01:42:08;;;;;;;7.82;5.15;;;12.40;99.90;;;;;;4943347;29;20035;-89
2022/09/23 01:44:47;;;;;;;7.72;5.57;;;12.40;99.90;;;;;;4950027;29;20032;-89
2022/09/23 01:47:36;;;;;;;5.32;4.80;;;12.40;99.90;;;;;;4933336;29;20031;-89
2022/09/23 01:50:55;;;;;;;5.47;4.45;;;12.40;99.90;;;;;;4949170;29;20516;-89
2022/09/23 01:53:04;;;;;;;6.10;4.85;;;12.40;99.90;;;;;;4949800;29;20046;-89
2022/09/23 01:55:37;;;;;;;6.40;5.13;;;12.30;99.90;;;;;;4950108;29;20028;-89
2022/09/23 01:58:14;;;;;;;6.97;4.70;;;12.30;99.90;;;;;;4950320;29;20035;-89
2022/09/23 02:00:47;;;;;;;5.78;5.07;;;12.30;99.90;;;;;;4950030;29;20036;-90
2022/09/23 02:03:43;;;;;;;7.55;4.63;;;12.30;99.90;;;;;;4934854;29;20028;-90
2022/09/23 02:06:30;;;;;;;6.50;4.38;;;12.30;99.90;;;;;;4950276;29;20107;-89
2022/09/23 02:09:01;;;;;;;10.07;5.20;;;12.30;99.90;;;;;;4950544;29;20039;-89
2022/09/23 02:11:29;;;;;;;6.18;5.57;;;12.30;99.90;;;;;;4951449;29;20118;-89
2022/09/23 02:14:06;;;;;;;5.65;5.13;;;12.30;99.90;;;;;;4933890;29;20035;-90
2022/09/23 02:16:38;;;;;;;4.05;3.70;;;12.30;99.90;;;;;;4949902;29;20023;-90
2022/09/23 02:19:32;;;;;;;6.38;4.60;;;12.20;99.90;;;;;;4950712;29;20028;-89
2022/09/23 02:22:05;;;;;;;7.57;4.95;;;12.20;99.90;;;;;;4952394;29;20032;-90
2022/09/23 02:24:35;;;;;;;8.23;5.75;;;12.20;99.90;;;;;;4952395;29;20059;-89
2022/09/23 02:27:22;;;;;;;7.03;4.85;;;12.20;99.90;;;;;;4952240;29;20024;-89
2022/09/23 02:30:16;;;;;;;4.78;4.35;;;12.20;99.90;;;;;;4951545;29;20035;-89
2022/09/23 02:33:03;;;;;;;4.82;4.43;;;12.20;99.90;;;;;;4935462;29;20063;-90
2022/09/23 02:35:52;;;;;;;6.32;5.82;;;12.20;99.90;;;;;;4935487;29;20031;-89
2022/09/23 02:38:39;;;;;;;7.05;4.22;;;12.20;99.90;;;;;;4935140;29;20028;-88
2022/09/23 02:41:14;;;;;;;4.65;4.22;;;12.10;99.90;;;;;;4935024;29;20047;-89
2022/09/23 02:43:58;;;;;;;4.82;4.13;;;12.10;99.90;;;;;;4935029;29;20031;-90
2022/09/23 02:46:25;;;;;;;4.75;4.35;;;12.10;99.90;;;;;;4935236;29;20028;-89
2022/09/23 02:49:09;;;;;;;15.23;5.22;;;12.10;99.90;;;;;;4951197;29;20556;-89
2022/09/23 02:51:37;;;;;;;4.65;4.25;;;12.10;99.90;;;;;;4951199;29;20036;-89
2022/09/23 02:54:09;;;;;;;5.13;4.63;;;12.10;99.90;;;;;;4924564;29;20103;-89
2022/09/23 02:56:36;;;;;;;5.50;4.97;;;12.10;99.90;;;;;;4917199;29;20036;-89
2022/09/23 02:59:02;;;;;;;7.88;6.00;;;12.10;99.90;;;;;;4932445;29;20032;-89
2022/09/23 03:01:44;;;;;;;4.90;4.47;;;12.10;99.90;;;;;;4919614;29;20096;-89
2022/09/23 03:04:24;;;;;;;4.90;4.50;;;12.10;99.90;;;;;;4935018;29;20036;-89
2022/09/23 03:06:59;;;;;;;6.18;5.63;;;12.00;99.90;;;;;;4935164;29;20036;-89
2022/09/23 03:09:39;;;;;;;4.25;3.95;;;11.90;99.90;;;;;;4930690;29;20462;-89
2022/09/23 03:12:12;;;;;;;6.03;4.95;;;12.00;99.90;;;;;;4934736;29;20402;-89
2022/09/23 03:14:48;;;;;;;6.07;5.47;;;12.00;99.90;;;;;;4934955;29;20039;-89
2022/09/23 03:17:24;;;;;;;4.32;3.92;;;12.00;99.90;;;;;;4934805;29;20040;-89
2022/09/23 03:20:06;;;;;;;4.68;4.28;;;12.00;99.90;;;;;;4934305;29;20032;-89
2022/09/23 03:22:48;;;;;;;5.82;4.53;;;12.00;99.90;;;;;;4934497;29;20131;-89
2022/09/23 03:25:18;;;;;;;6.95;5.53;;;11.90;99.90;;;;;;4935254;29;20043;-89
2022/09/23 03:27:44;;;;;;;4.13;3.70;;;11.90;99.90;;;;;;4935777;29;20052;-89
2022/09/23 03:30:11;;;;;;;4.20;3.90;;;11.90;99.90;;;;;;4935568;29;20028;-89
2022/09/23 03:32:41;;;;;;;5.35;3.72;;;11.90;99.90;;;;;;4935326;29;20032;-89
2022/09/23 03:35:07;;;;;;;4.90;4.25;;;11.90;99.90;;;;;;4935598;29;20036;-89
2022/09/23 03:38:01;;;;;;;6.47;4.70;;;11.90;99.90;;;;;;4951023;29;20038;-89
2022/09/23 03:40:31;;;;;;;4.45;3.85;;;11.80;99.90;;;;;;4954061;29;20032;-89
2022/09/23 03:42:59;;;;;;;4.82;3.70;;;11.90;99.90;;;;;;4953451;29;20104;-89
2022/09/23 03:45:33;;;;;;;4.97;4.32;;;11.90;99.90;;;;;;4954064;29;20019;-89
2022/09/23 03:48:00;;;;;;;9.02;4.55;;;11.80;99.90;;;;;;4953946;29;20040;-89
2022/09/23 03:50:26;;;;;;;8.77;5.43;;;11.80;99.90;;;;;;4954482;29;20043;-89
2022/09/23 03:52:52;;;;;;;6.72;4.82;;;11.80;99.90;;;;;;4928707;29;20043;-89
2022/09/23 03:55:20;;;;;;;4.47;4.07;;;11.80;99.90;;;;;;4918247;29;20028;-89
2022/09/23 03:57:46;;;;;;;6.72;3.80;;;;;;;;;;4935063;29;20020;-89
2022/09/23 04:00:14;;;;;;;7.85;4.68;;;11.80;99.90;;;;;;4934984;29;20032;-89
2022/09/23 04:02:40;;;;;;;3.85;3.55;;;11.80;99.90;;;;;;4919460;29;20036;-89
2022/09/23 04:05:07;;;;;;;3.97;3.58;;;11.80;99.90;;;;;;4935045;29;20035;-89
2022/09/23 04:07:34;;;;;;;4.65;4.10;;;;;;;;;;4903424;29;20387;-89
2022/09/23 04:10:00;;;;;;;4.85;3.50;;;;;;;;;;4918489;29;20107;-89
2022/09/23 04:12:26;;;;;;;5.63;3.75;;;;;;;;;;4942479;29;20389;-89
2022/09/23 04:14:52;;;;;;;6.93;4.82;;;;;;;;;;4938463;29;20038;-89
2022/09/23 04:17:18;;;;;;;5.63;4.47;;;;;;;;;;4938696;29;20043;-89
2022/09/23 04:19:45;;;;;;;4.82;4.43;;;;;;;;;;4954803;29;20445;-89
2022/09/23 04:22:10;;;;;;;6.53;4.82;;;11.70;99.90;;;;;;4931250;29;20103;-89
2022/09/23 04:24:36;;;;;;;5.40;4.43;;;11.80;99.90;;;;;;4936194;29;20032;-88
2022/09/23 04:27:02;;;;;;;7.75;4.07;;;;;;;;;;4927098;29;20059;-88
2022/09/23 04:29:29;;;;;;;5.00;4.50;;;11.70;99.90;;;;;;4938418;29;20471;-88
2022/09/23 04:31:55;;;;;;;8.00;4.15;;;11.70;99.90;;;;;;4922413;29;20056;-88
2022/09/23 04:34:21;;;;;;;5.00;3.97;;;;;;;;;;4954791;29;20059;-88
2022/09/23 04:36:48;;;;;;;6.28;4.18;;;11.70;99.90;;;;;;4939970;29;20032;-88
2022/09/23 04:39:15;;;;;;;5.60;3.17;;;11.50;99.90;;;;;;4932623;29;20032;-88
2022/09/23 04:41:42;;;;;;;4.90;4.18;;;;;;;;;;4932148;29;20038;-88
2022/09/23 04:44:08;;;;;;;8.50;5.10;;;;;;;;;;4943157;29;20035;-88
2022/09/23 04:46:38;;;;;;;4.82;3.10;;;11.60;99.90;;;;;;4940491;29;20064;-88
2022/09/23 04:49:06;;;;;;;3.65;3.10;;;;;;;;;;4937413;29;20032;-88
2022/09/23 04:51:33;;;;;;;4.05;2.88;;;;;;;;;;4940179;29;20035;-89
2022/09/23 04:53:59;;;;;;;6.10;4.65;;;11.60;99.90;;;;;;4938039;29;20032;-89
2022/09/23 04:56:28;;;;;;;4.10;3.72;;;11.80;99.90;;;;;;4929311;29;20035;-88
2022/09/23 04:58:57;;;;;;;4.82;4.43;;;11.50;99.90;;;;;;4940304;29;20023;-88
2022/09/23 05:01:25;;;;;;;4.78;3.75;;;11.20;99.90;;;;;;4949522;29;20027;-88
2022/09/23 05:03:55;;;;;;;4.72;4.03;;;11.60;99.90;;;;;;4931159;29;20087;-88
2022/09/23 05:06:21;;;;;;;2.90;2.70;;;;;;;;;;4939227;29;20028;-88
2022/09/23 05:08:53;;;;;;;4.40;2.83;;;11.50;99.90;;;;;;4925346;29;20032;-88
2022/09/23 05:11:20;;;;;;;3.47;3.17;;;11.70;99.90;;;;;;4934505;29;20068;-87
2022/09/23 05:13:47;;;;;;;4.47;4.07;;;11.60;99.90;;;;;;4901354;29;20462;-89
2022/09/23 05:16:13;;;;;;;2.95;2.75;;;11.40;99.90;;;;;;4930468;29;20033;-88
2022/09/23 05:18:41;;;;;;;4.38;3.17;;;11.50;99.90;;;;;;4936018;29;20082;-89
2022/09/23 05:21:12;;;;;;;3.42;3.13;;;11.40;99.90;;;;;;4936197;29;20026;-88
2022/09/23 05:23:41;;;;;;;5.25;4.60;;;11.40;99.90;;;;;;4951545;29;20040;-89
2022/09/23 05:26:12;;;;;;;5.30;4.30;;;11.40;99.90;;;;;;4919167;29;20108;-89
2022/09/23 05:28:38;;;;;;;6.05;5.25;;;11.40;99.90;;;;;;4950899;29;20198;-88
2022/09/23 05:31:16;;;;;;;8.90;4.82;;;11.30;99.90;;;;;;4935221;29;20051;-88
2022/09/23 05:33:44;;;;;;;4.80;4.20;;;11.20;99.90;;;;;;4935883;29;20035;-88
2022/09/23 05:36:12;;;;;;;4.15;3.83;;;11.30;99.90;;;;;;4951921;29;20019;-88
2022/09/23 05:38:39;;;;;;;5.07;4.07;;;;;;;;;;4953582;29;20028;-88
2022/09/23 05:41:09;;;;;;;4.30;3.78;;;11.30;99.90;;;;;;4952543;29;20088;-87
2022/09/23 05:43:36;;;;;;;3.67;3.45;;;;;;;;;;4951926;29;20070;-87
2022/09/23 05:46:07;;;;;;;7.55;3.60;;;11.10;99.90;;;;;;4934175;29;20096;-88
2022/09/23 05:48:38;;;;;;;5.95;4.05;;;11.30;99.90;;;;;;4927209;29;20043;-89
2022/09/23 05:51:11;;;;;;;4.65;4.03;;;11.30;99.90;;;;;;4942904;29;20020;-88
2022/09/23 05:53:45;;;;;;;5.43;2.97;;;11.20;99.90;;;;;;4944601;29;20028;-89
2022/09/23 05:56:17;;;;;;;3.47;3.17;;;11.30;99.90;;;;;;4934828;29;20034;-89
2022/09/23 05:58:53;;;;;;;3.72;2.63;;;11.30;99.90;;;;;;4929986;29;20032;-88
2022/09/23 06:01:26;;;;;;;5.70;3.50;;;11.30;99.90;;;;;;4941178;29;20043;-88
2022/09/23 06:03:57;;;;;;;3.70;3.33;;;11.30;99.90;;;;;;4931354;29;20032;-88
2022/09/23 06:06:27;;;;;;;3.30;2.97;;;11.40;99.90;;;;;;4920928;29;20045;-88
2022/09/23 06:08:53;;;;;;;4.00;3.72;;;;;;;;;;4931418;29;20091;-88
2022/09/23 06:11:20;;;;;;;4.07;3.50;;;11.30;99.90;;;;;;4935679;29;20051;-88
2022/09/23 06:13:47;;;;;;;4.30;3.90;;;;;;;;;;4933989;29;20032;-88
2022/09/23 06:16:24;;;;;;;3.30;2.88;;;11.30;99.90;;;;;;4923548;29;20442;-88
2022/09/23 06:18:57;;;;;;;4.68;3.53;;;11.20;99.90;;;;;;4949744;29;20047;-88
2022/09/23 06:21:23;;;;;;;3.50;3.15;;;11.30;99.90;;;;;;4931462;29;20086;-89
2022/09/23 06:23:49;;;;;;;4.43;4.00;;;;;;;;;;4915605;29;20028;-88
2022/09/23 06:26:15;;;;;;;3.15;2.85;;;11.40;99.90;;;;;;4916348;29;20044;-89
2022/09/23 06:28:44;;;;;;;2.88;2.67;;;11.40;99.90;;;;;;4915982;29;20040;-88
2022/09/23 06:31:13;;;;;;;16.45;4.15;;;11.40;99.90;;;;;;4931963;29;20116;-89
2022/09/23 06:33:40;;;;;;;3.53;3.23;;;11.50;99.90;;;;;;4932792;29;20067;-89
2022/09/23 06:36:07;;;;;;;4.65;2.78;;;;;;;;;;4923013;29;20064;-88
2022/09/23 06:38:33;;;;;;;5.47;3.13;;;11.50;99.90;;;;;;4922828;29;20031;-88
2022/09/23 06:41:02;;;;;;;2.22;2.13;;;11.50;99.90;;;;;;4939089;29;20072;-88
2022/09/23 06:43:28;;;;;;;3.28;2.97;;;11.50;99.90;;;;;;4946535;29;20059;-89
2022/09/23 06:45:54;;;;;;;3.65;3.33;;;11.50;99.90;;;;;;4955365;29;20023;-88
2022/09/23 06:48:22;;;;;;;8.13;4.50;;;11.50;99.90;;;;;;4939380;29;20031;-89
2022/09/23 06:50:48;;;;;;;3.20;2.90;;;11.50;99.90;;;;;;4938719;29;20027;-89
2022/09/23 06:53:15;;;;;;;5.00;3.30;;;11.60;99.90;;;;;;4939523;29;20054;-88
2022/09/23 06:55:42;;;;;;;2.83;2.65;;;11.60;99.90;;;;;;4939783;29;20016;-88
2022/09/23 06:58:08;;;;;;;2.92;2.65;;;11.50;99.90;;;;;;4939713;29;20024;-89
2022/09/23 07:00:35;;;;;;;3.75;3.35;;;11.60;99.90;;;;;;4939817;29;20032;-88
2022/09/23 07:03:04;;;;;;;3.47;3.17;;;11.60;99.90;;;;;;4940084;29;20035;-89
2022/09/23 07:05:30;;;;;;;3.15;2.85;;;11.60;99.90;;;;;;4939340;29;20024;-89
2022/09/23 07:07:57;;;;;;;4.30;3.00;;;;;;;;;;4939543;29;20031;-86
2022/09/23 07:10:23;;;;;;;6.95;2.78;;;11.70;99.90;;;;;;4957258;29;20032;-88
2022/09/23 07:12:50;;;;;;;2.90;2.53;;;;;;;;;;4940266;29;20047;-88
2022/09/23 07:15:16;;;;;;;3.83;3.33;;;11.70;99.90;;;;;;4939520;29;20032;-88
2022/09/23 07:17:43;;;;;;;6.20;4.28;;;;;;;;;;4939594;29;20043;-89
2022/09/23 07:20:10;;;;;;;4.65;3.67;;;11.70;99.90;;;;;;4939339;29;20027;-89
2022/09/23 07:22:37;;;;;;;3.63;2.05;;;;;;;;;;4939670;29;20068;-89
2022/09/23 07:25:04;;;;;;;5.30;3.38;;;11.80;99.90;;;;;;4940008;29;20043;-89
2022/09/23 07:27:32;;;;;;;3.75;2.90;;;11.70;99.90;;;;;;4939035;29;20034;-89
2022/09/23 07:29:57;;;;;;;5.22;2.90;;;11.80;99.90;;;;;;4939415;29;20038;-89
2022/09/23 07:32:24;;;;;;;4.05;3.65;;;;;;;;;;4939420;29;20063;-88
2022/09/23 07:34:50;;;;;;;7.40;4.45;;;11.90;99.90;;;;;;4956381;29;20039;-87
2022/09/23 07:37:17;;;;;;;4.85;3.13;;;11.90;99.90;;;;;;4940069;29;20051;-87
2022/09/23 07:39:44;;;;;;;3.15;2.95;;;11.90;99.90;;;;;;4940293;29;20011;-87
2022/09/23 07:42:13;;;;;;;5.15;3.78;;;;;;;;;;4940300;29;20118;-87
2022/09/23 07:44:42;;;;;;;4.63;3.42;;;;;;;;;;4939378;29;20047;-89
2022/09/23 07:47:08;;;;;;;3.85;2.40;;;;;;;;;;4940028;29;20039;-88
2022/09/23 07:49:35;;;;;;;6.18;2.97;;;;;;;;;;4956148;29;20020;-87
2022/09/23 07:52:01;;;;;;;3.38;3.05;;;12.00;99.90;;;;;;4940334;29;20047;-89
2022/09/23 07:54:28;;;;;;;5.63;3.40;;;12.00;99.90;;;;;;4957081;29;20035;-89
2022/09/23 07:56:55;;;;;;;3.60;2.63;;;;;;;;;;4940597;29;20020;-89
2022/09/23 07:59:21;;;;;;;5.05;3.22;;;;;;;;;;4955411;29;20062;-89
2022/09/23 08:01:51;;;;;;;5.47;2.42;;;12.20;99.90;;;;;;4937219;29;20052;-89
2022/09/23 08:04:27;;;;;;;2.53;2.33;;;12.10;99.90;;;;;;4937597;29;20043;-87
2022/09/23 08:06:56;;;;;;;4.15;3.75;;;12.20;99.90;;;;;;4938040;29;20047;-89
2022/09/23 08:09:30;;;;;;;6.88;2.42;;;12.30;99.90;;;;;;4938135;29;20067;-88
2022/09/23 08:11:59;;;;;;;6.90;2.95;;;10.90;99.90;;;;;;4937568;29;20043;-88
2022/09/23 08:14:25;;;;;;;3.78;3.42;;;;;;;;;;4939932;29;20079;-89
2022/09/23 08:16:53;;;;;;;2.22;2.03;;;12.30;99.90;;;;;;4939188;29;20043;-89
2022/09/23 08:19:19;;;;;;;4.13;3.72;;;;;;;;;;4956017;29;20016;-88
2022/09/23 08:21:46;;;;;;;5.00;2.63;;;12.30;99.90;;;;;;4940265;29;20020;-90
2022/09/23 08:24:15;;;;;;;2.63;2.38;;;12.40;99.90;;;;;;4955135;29;20037;-89
2022/09/23 08:26:42;;;;;;;4.43;2.20;;;12.00;99.90;;;;;;4940644;29;20032;-89
2022/09/23 08:29:14;;;;;;;2.40;2.20;;;12.40;99.90;;;;;;4940660;29;20035;-89
2022/09/23 08:31:40;;;;;;;3.60;3.33;;;12.40;99.90;;;;;;4940024;29;20172;-89
2022/09/23 08:34:07;;;;;;;4.05;3.28;;;;;;;;;;4939125;29;20032;-89
2022/09/23 08:36:34;;;;;;;4.43;2.00;;;12.40;99.90;;;;;;4924080;29;20152;-89
2022/09/23 08:39:00;;;;;;;5.28;3.10;;;;;;;;;;4940014;29;20047;-90
2022/09/23 08:41:52;;;;;;;3.45;2.15;;;12.50;99.90;;;;;;4956490;29;20051;-88
2022/09/23 08:44:48;;;;;;;4.32;2.55;;;12.50;99.90;;;;;;4940395;29;20046;-89
2022/09/23 08:47:33;;;;;;;2.70;2.17;;;12.50;99.90;;;;;;4940014;29;20024;-89
2022/09/23 08:50:16;;;;;;;2.22;2.03;;;12.50;99.90;;;;;;4939202;29;20116;-88
2022/09/23 08:52:57;;;;;;;9.63;3.72;;;12.50;99.90;;;;;;4945342;29;20038;-89
2022/09/23 08:55:44;;;;;;;2.83;1.90;;;12.60;99.90;;;;;;4955489;29;20031;-90
2022/09/23 08:58:28;;;;;;;5.68;3.42;;;12.60;99.90;;;;;;4938007;29;20469;-89
2022/09/23 09:01:16;;;;;;;2.35;2.13;;;12.60;99.90;;;;;;4938721;29;20122;-89
2022/09/23 09:03:54;;;;;;;3.22;1.88;;;12.60;99.90;;;;;;4939629;29;20035;-89
2022/09/23 09:06:33;;;;;;;2.50;2.35;;;12.60;99.90;;;;;;4939559;29;20047;-89
2022/09/23 09:09:03;;;;;;;2.88;2.17;;;12.60;99.90;;;;;;4955723;29;20032;-89
2022/09/23 09:11:40;;;;;;;5.55;2.38;;;12.70;99.90;;;;;;4954769;29;20024;-89
2022/09/23 09:14:06;;;;;;;3.90;2.58;;;12.70;99.90;;;;;;4954838;29;20036;-89
2022/09/23 09:16:41;;;;;;;2.13;2.03;;;12.70;99.90;;;;;;4939261;29;20030;-89
2022/09/23 09:19:19;;;;;;;2.35;1.98;;;12.70;99.90;;;;;;4955483;29;20027;-88
2022/09/23 09:21:50;;;;;;;1.65;1.52;;;12.80;99.90;;;;;;4939182;29;20051;-89
2022/09/23 09:24:32;;;;;;;5.60;2.65;;;12.80;99.90;;;;;;4955503;29;20087;-90
2022/09/23 09:27:00;;;;;;;2.30;2.10;;;12.80;99.90;;;;;;4955447;29;20041;-89
2022/09/23 09:29:33;;;;;;;3.92;1.75;;;13.00;99.90;;;;;;4954857;29;20048;-89
2022/09/23 09:32:11;;;;;;;3.22;1.48;;;12.90;99.90;;;;;;4939862;29;20043;-89
2022/09/23 09:34:48;;;;;;;6.50;2.60;;;13.10;99.90;;;;;;4940482;29;20038;-90
2022/09/23 09:37:19;;;;;;;2.15;1.63;;;13.10;99.90;;;;;;4955187;29;20087;-89
2022/09/23 09:39:45;;;;;;;2.65;2.03;;;13.10;99.90;;;;;;4955737;29;20039;-90
2022/09/23 09:42:25;;;;;;;3.22;2.35;;;13.20;99.90;;;;;;4923604;29;20035;-90
2022/09/23 09:45:19;;;;;;;3.17;2.35;;;13.30;99.90;;;;;;4939956;29;20042;-90
2022/09/23 09:47:55;;;;;;;3.05;1.98;;;13.40;99.90;;;;;;4939147;29;20032;-90
2022/09/23 09:50:51;;;;;;;2.83;2.00;;;13.50;99.90;;;;;;4956106;29;20036;-87
2022/09/23 09:53:23;;;;;;;5.68;2.35;;;13.50;99.90;;;;;;4939749;29;20042;-87
2022/09/23 09:56:08;;;;;;;2.75;2.28;;;13.70;99.90;;;;;;4955831;29;20036;-88
2022/09/23 09:58:51;;;;;;;2.70;2.47;;;13.70;99.90;;;;;;4956449;29;20015;-88
2022/09/23 10:01:30;;;;;;;2.38;2.05;;;13.80;99.90;;;;;;4939171;29;20028;-87
2022/09/23 10:04:02;;;;;;;2.95;2.60;;;13.80;99.90;;;;;;4939505;29;20059;-88
2022/09/23 10:06:31;;;;;;;3.75;2.42;;;13.90;99.90;;;;;;4956218;29;20040;-88
2022/09/23 10:09:00;;;;;;;6.07;2.70;;;13.90;99.90;;;;;;4941357;29;20024;-88
2022/09/23 10:11:29;;;;;;;3.67;2.33;;;13.90;99.90;;;;;;4958790;29;20036;-88
2022/09/23 10:14:01;;;;;;;4.35;2.42;;;13.80;99.90;;;;;;4942249;29;20043;-88
2022/09/23 10:16:30;;;;;;;3.65;2.70;;;13.90;99.90;;;;;;4943540;29;20094;-89
2022/09/23 10:18:58;;;;;;;2.53;2.33;;;13.90;99.90;;;;;;4942724;29;20015;-89
2022/09/23 10:21:32;;;;;;;6.95;2.78;;;13.90;99.90;;;;;;4944194;29;20028;-89
2022/09/23 10:23:59;;;;;;;6.72;1.98;;;13.90;99.90;;;;;;4959837;29;20036;-90
2022/09/23 10:26:36;;;;;;;1.50;1.40;;;13.90;99.90;;;;;;4943999;29;20042;-89
2022/09/23 10:29:19;;;;;;;2.38;2.17;;;13.90;99.90;;;;;;4942955;29;20072;-88
2022/09/23 10:31:45;;;;;;;4.50;2.40;;;14.00;99.90;;;;;;4944030;29;20113;-89
2022/09/23 10:34:26;;;;;;;2.65;1.65;;;13.20;99.90;;;;;;4944240;29;20032;-90
2022/09/23 10:37:07;;;;;;;1.80;1.70;;;14.10;99.90;;;;;;4944283;29;20147;-89
2022/09/23 10:48:11;;;;;;;3.83;2.30;;;14.00;99.90;;;;;;4960650;29;20122;-89
2022/09/23 10:50:47;;;;;;;2.90;1.85;;;14.10;99.90;;;;;;4945627;29;20039;-89
2022/09/23 10:53:34;;;;;;;11.45;2.20;;;14.20;99.90;;;;;;4945160;29;20038;-90
2022/09/23 10:56:38;;;;;;;2.67;2.03;;;14.10;99.90;;;;;;4960982;29;20046;-88
2022/09/23 10:59:35;;;;;;;5.47;2.05;;;14.40;99.90;;;;;;4945029;29;20016;-89
2022/09/23 11:02:17;;;;;;;4.38;2.90;;;14.20;99.90;;;;;;4945408;29;20027;-89
2022/09/23 11:05:46;;;;;;;2.55;2.22;;;13.10;99.90;;;;;;4945501;29;20062;-89
2022/09/23 11:08:50;;;;;;;3.20;2.90;;;14.30;99.90;;;;;;4908625;29;20486;-89
2022/09/23 11:11:45;;;;;;;7.25;2.75;;;14.40;99.90;;;;;;4925059;29;20040;-89
2022/09/23 11:14:37;;;;;;;3.38;2.03;;;14.40;99.90;;;;;;4919785;29;20047;-88
2022/09/23 11:17:24;;;;;;;4.97;2.15;;;14.70;99.90;;;;;;4952957;29;20031;-89
2022/09/23 11:20:24;;;;;;;2.03;1.83;;;14.50;99.90;;;;;;4957939;29;20056;-89
2022/09/23 11:23:08;;;;;;;;;;;14.50;99.90;;;;;;4959240;29;20035;-89
2022/09/23 11:25:46;;;;;;;2.25;1.80;;;14.70;99.90;;;;;;4940045;29;19911;-89
2022/09/23 11:28:46;;;;;;;1.90;1.73;;;15.30;99.90;;;;;;4934778;29;20063;-90
2022/09/23 11:31:29;;;;;;;3.60;1.70;;;14.70;99.90;;;;;;4940161;29;20056;-89
2022/09/23 11:34:15;;;;;;;4.18;2.25;;;14.50;99.90;;;;;;4942974;29;20044;-89
2022/09/23 11:37:12;;;;;;;2.05;1.55;;;14.80;99.90;;;;;;4943771;29;20032;-89
2022/09/23 11:39:49;;;;;;;1.00;1.00;;;14.80;99.90;;;;;;4940305;29;20040;-89
2022/09/23 11:42:32;;;;;;;1.88;1.33;;;15.30;99.90;;;;;;4932978;29;20040;-88
2022/09/23 11:45:06;;;;;;;2.53;2.33;;;15.10;99.90;;;;;;4938970;29;20108;-88
2022/09/23 11:47:41;;;;;;;2.00;1.58;;;15.10;99.90;;;;;;4939407;29;20032;-89
2022/09/23 11:50:14;;;;;;;4.65;2.25;;;15.00;99.90;;;;;;4956808;29;20024;-89
2022/09/23 11:52:46;;;;;;;1.63;1.15;;;15.00;99.90;;;;;;4957467;29;20043;-89
2022/09/23 11:55:23;;;;;;;2.38;2.15;;;15.30;99.90;;;;;;4941017;29;20032;-89
2022/09/23 11:58:03;;;;;;;2.67;2.47;;;15.30;99.90;;;;;;4938694;29;20039;-89
2022/09/23 12:00:34;;;;;;;5.78;1.10;;;15.00;99.90;;;;;;4940758;29;20039;-88
2022/09/23 12:03:24;;;;;;;2.85;1.02;;;14.90;99.90;;;;;;4939339;29;20067;-89
2022/09/23 12:06:01;;;;;;;1.77;1.40;;;15.00;99.90;;;;;;4937919;29;20052;-89
2022/09/23 12:08:35;;;;;;;2.85;2.45;;;14.90;99.90;;;;;;4937722;29;20028;-89
2022/09/23 12:11:25;;;;;;;4.85;1.95;;;14.80;99.90;;;;;;4938226;29;20100;-89
2022/09/23 12:14:02;;;;;;;3.93;1.40;;;14.90;99.90;;;;;;4937387;29;20032;-89
2022/09/23 12:16:54;;;;;;;4.10;1.60;;;14.30;99.90;;;;;;4932744;29;20295;-88
2022/09/23 12:19:27;;;;;;;2.22;1.80;;;14.90;99.90;;;;;;4941691;29;20032;-89
2022/09/23 12:22:27;;;;;;;3.05;2.08;;;14.80;99.90;;;;;;4943029;29;20039;-89
2022/09/23 12:25:17;;;;;;;4.45;1.23;;;14.80;99.90;;;;;;4942094;29;20040;-89
2022/09/23 12:27:44;;;;;;;;;;;15.10;99.90;;;;;;4942261;29;20118;-87
2022/09/23 12:30:19;;;;;;;1.70;1.55;;;14.90;99.90;;;;;;4957501;29;19949;-89
2022/09/23 12:32:48;;;;;;;2.45;1.50;;;14.90;99.90;;;;;;4958290;29;20015;-88
2022/09/23 12:35:31;;;;;;;2.35;2.10;;;14.80;99.90;;;;;;4942174;29;20039;-88
2022/09/23 12:38:01;;;;;;;1.30;1.20;;;14.90;99.90;;;;;;4942733;29;20062;-89
2022/09/23 12:40:40;;;;;;;4.47;2.53;;;14.90;99.90;;;;;;4931569;29;20030;-88
2022/09/23 12:43:18;;;;;;;1.83;1.73;;;15.00;99.90;;;;;;4957531;29;20020;-89
2022/09/23 12:45:46;;;;;;;6.80;1.77;;;;;;;;;;4940865;29;20059;-88
2022/09/23 12:48:15;;;;;;;3.00;1.90;;;15.00;99.90;;;;;;4939452;29;20027;-89
2022/09/23 12:50:47;;;;;;;3.60;1.85;;;14.90;99.90;;;;;;4956984;29;20071;-88
2022/09/23 12:53:32;;;;;;;6.60;2.10;;;15.00;99.90;;;;;;4941339;29;20027;-88
2022/09/23 12:56:13;;;;;;;4.22;1.90;;;14.90;99.90;;;;;;4958749;29;20007;-88
2022/09/23 12:58:42;;;;;;;2.15;1.95;;;15.10;99.90;;;;;;4938577;29;20092;-88
2022/09/23 13:01:21;;;;;;;1.17;1.15;;;15.00;99.90;;;;;;4954081;29;20031;-87
2022/09/23 13:06:52;;;;;;;2.60;1.25;;;13.50;99.90;;;;;;4956806;29;20039;-88
2022/09/23 13:09:24;;;;;;;5.28;2.25;;;15.00;99.90;;;;;;4941749;29;20035;-88
2022/09/23 13:11:52;;;;;;;8.93;2.28;;;15.00;99.90;;;;;;4957526;29;20042;-88
2022/09/23 13:14:23;;;;;;;3.25;1.60;;;14.90;99.90;;;;;;4959011;29;20087;-89
2022/09/23 13:16:50;;;;;;;1.38;1.27;;;;;;;;;;4957794;29;20036;-88
2022/09/23 13:19:26;;;;;;;4.35;1.60;;;15.10;99.90;;;;;;4941254;29;20095;-88
2022/09/23 13:21:52;;;;;;;2.42;1.98;;;;;;;;;;4934723;29;20032;-89
2022/09/23 13:24:21;;;;;;;4.25;2.08;;;15.10;99.90;;;;;;4932633;29;20059;-89
2022/09/23 13:27:04;;;;;;;1.48;1.38;;;15.10;99.90;;;;;;4921878;29;20073;-88
2022/09/23 13:29:36;;;;;;;3.00;1.88;;;15.10;99.90;;;;;;4941589;29;20036;-88
2022/09/23 13:32:02;;;;;;;2.10;1.60;;;15.10;99.90;;;;;;4940816;29;20056;-88
2022/09/23 13:34:37;;;;;;;3.20;2.50;;;15.00;99.90;;;;;;4941587;29;20122;-88
2022/09/23 13:37:24;;;;;;;4.30;2.20;;;14.20;99.90;;;;;;4935345;29;20099;-88
2022/09/23 13:39:51;;;;;;;4.40;2.60;;;;;;;;;;4922290;29;20095;-88
2022/09/23 13:42:29;;;;;;;3.03;2.22;;;15.10;99.90;;;;;;4931367;29;20028;-88
2022/09/23 13:44:59;;;;;;;1.85;1.75;;;15.10;99.90;;;;;;4952959;29;20095;-89
2022/09/23 13:47:28;;;;;;;5.13;2.08;;;15.10;99.90;;;;;;4938231;29;20104;-89
2022/09/23 13:49:55;;;;;;;2.20;2.03;;;;;;;;;;4938427;29;20020;-88